createdAt,value
2023-03-12T00:01:13.770Z,97108.56
2023-03-12T00:03:41.094Z,97107.81
2023-03-12T00:06:10.783Z,97104.47
2023-03-12T00:08:39.110Z,97106.22
2023-03-12T00:11:26.484Z,97103.31
2023-03-12T00:13:55.920Z,97111.28
2023-03-12T00:16:24.445Z,97115.13
2023-03-12T00:18:53.544Z,97111.47
2023-03-12T00:21:22.207Z,97113.44
2023-03-12T00:23:50.575Z,97103.81
2023-03-12T00:26:19.257Z,97113.75
2023-03-12T00:28:48.678Z,97120.94
2023-03-12T00:31:16.269Z,97134.13
2023-03-12T00:33:44.639Z,97146.59
2023-03-12T00:36:12.884Z,97142.56
2023-03-12T00:38:40.366Z,97155.69
2023-03-12T00:41:07.899Z,97165.75
2023-03-12T00:43:35.311Z,97172.03
2023-03-12T00:46:02.812Z,97169.59
2023-03-12T00:48:30.001Z,97177.44
2023-03-12T00:50:57.221Z,97177.41
2023-03-12T00:53:24.868Z,97190.75
2023-03-12T00:55:52.161Z,97202.00
2023-03-12T00:58:19.577Z,97195.94
2023-03-12T01:00:47.391Z,97217.16
2023-03-12T01:03:16.275Z,97220.38
2023-03-12T01:05:43.553Z,97229.59
2023-03-12T01:08:11.861Z,97227.31
2023-03-12T01:10:42.994Z,97233.31
2023-03-12T01:13:10.379Z,97226.16
2023-03-12T01:15:40.560Z,97230.22
2023-03-12T01:18:08.298Z,97212.34
2023-03-12T01:20:36.441Z,97211.06
2023-03-12T01:23:04.062Z,97218.44
2023-03-12T01:25:31.424Z,97220.50
2023-03-12T01:27:59.960Z,97248.94
2023-03-12T01:30:27.931Z,97254.06
2023-03-12T01:32:55.604Z,97257.84
2023-03-12T01:35:23.055Z,97259.59
2023-03-12T01:37:50.451Z,97268.06
2023-03-12T01:40:21.148Z,97274.56
2023-03-12T01:42:57.057Z,97263.78
2023-03-12T01:46:01.881Z,97271.03
2023-03-12T01:48:36.721Z,97285.41
2023-03-12T01:51:05.522Z,97285.41
2023-03-12T01:53:34.065Z,97297.88
2023-03-12T01:56:02.283Z,97295.97
2023-03-12T01:58:33.755Z,97305.00
2023-03-12T02:01:01.299Z,97298.09
2023-03-12T02:03:30.830Z,97300.56
2023-03-12T02:06:13.566Z,97305.25
2023-03-12T02:08:46.339Z,97310.22
2023-03-12T02:11:14.901Z,97323.28
2023-03-12T02:13:43.554Z,97334.63
2023-03-12T02:16:12.304Z,97318.91
2023-03-12T02:18:39.871Z,97338.13
2023-03-12T02:21:10.376Z,97350.06
2023-03-12T02:24:14.198Z,97362.94
2023-03-12T02:26:42.739Z,97371.72
2023-03-12T02:29:11.496Z,97389.31
2023-03-12T02:31:47.573Z,97390.28
2023-03-12T02:34:15.162Z,97399.81
2023-03-12T02:36:42.536Z,97389.66
2023-03-12T02:39:12.960Z,97401.25
2023-03-12T02:41:56.217Z,97402.34
2023-03-12T02:44:30.326Z,97397.28
2023-03-12T02:47:00.285Z,97398.16
2023-03-12T02:49:31.217Z,97405.28
2023-03-12T02:52:02.879Z,97403.13
2023-03-12T02:54:31.121Z,97421.75
2023-03-12T02:56:59.064Z,97430.38
2023-03-12T02:59:28.735Z,97437.00
2023-03-12T03:01:59.607Z,97434.00
2023-03-12T03:04:28.649Z,97447.03
2023-03-12T03:06:56.853Z,97452.41
2023-03-12T03:09:26.143Z,97454.53
2023-03-12T03:11:54.736Z,97460.09
2023-03-12T03:14:24.378Z,97464.59
2023-03-12T03:16:53.587Z,97466.63
2023-03-12T03:19:23.596Z,97470.38
2023-03-12T03:21:51.394Z,97464.63
2023-03-12T03:24:19.121Z,97463.38
2023-03-12T03:26:46.748Z,97482.19
2023-03-12T03:29:16.342Z,97476.28
2023-03-12T03:31:44.623Z,97479.53
2023-03-12T03:34:13.025Z,97489.03
2023-03-12T03:36:41.889Z,97478.53
2023-03-12T03:39:13.678Z,97490.00
2023-03-12T03:41:41.017Z,97495.25
2023-03-12T03:44:10.253Z,97510.88
2023-03-12T03:46:40.532Z,97511.13
2023-03-12T03:49:13.269Z,97527.81
2023-03-12T03:51:43.298Z,97525.34
2023-03-12T03:54:13.804Z,97533.38
2023-03-12T03:56:42.732Z,97524.56
2023-03-12T03:59:11.419Z,97539.59
2023-03-12T04:01:40.461Z,97550.84
2023-03-12T04:07:57.253Z,97574.47
2023-03-12T04:10:26.927Z,97583.47
2023-03-12T04:13:03.482Z,97586.41
2023-03-12T04:15:31.397Z,97590.25
2023-03-12T04:17:58.826Z,97590.16
2023-03-12T04:20:38.934Z,97607.50
2023-03-12T04:23:09.873Z,97613.56
2023-03-12T04:25:37.881Z,97614.44
2023-03-12T04:28:11.027Z,97637.06
2023-03-12T04:30:39.306Z,97630.41
2023-03-12T04:33:08.269Z,97632.69
2023-03-12T04:35:55.263Z,97642.94
2023-03-12T04:38:25.788Z,97649.97
2023-03-12T04:41:17.514Z,97662.06
2023-03-12T04:44:04.918Z,97677.56
2023-03-12T04:46:34.690Z,97681.75
2023-03-12T04:49:02.879Z,97686.75
2023-03-12T04:51:32.402Z,97695.53
2023-03-12T04:54:03.586Z,97690.31
2023-03-12T04:56:31.726Z,97705.81
2023-03-12T04:59:01.671Z,97709.50
2023-03-12T05:01:32.927Z,97700.72
2023-03-12T05:04:08.827Z,97709.72
2023-03-12T05:06:36.452Z,97717.31
2023-03-12T05:09:04.878Z,97726.09
2023-03-12T05:11:32.387Z,97733.34
2023-03-12T05:14:00.195Z,97732.97
2023-03-12T05:16:28.739Z,97734.38
2023-03-12T05:19:00.053Z,97746.47
2023-03-12T05:21:31.905Z,97734.88
2023-03-12T05:24:00.545Z,97735.47
2023-03-12T05:26:37.521Z,97756.38
2023-03-12T05:29:12.867Z,97757.38
2023-03-12T05:31:40.302Z,97757.06
2023-03-12T05:34:12.123Z,97768.13
2023-03-12T05:36:41.369Z,97784.53
2023-03-12T05:39:09.002Z,97792.34
2023-03-12T05:41:36.804Z,97802.75
2023-03-12T05:44:12.778Z,97814.53
2023-03-12T05:46:47.077Z,97826.16
2023-03-12T05:49:16.024Z,97839.84
2023-03-12T05:51:49.096Z,97847.81
2023-03-12T05:54:18.114Z,97849.28
2023-03-12T05:56:48.494Z,97871.03
2023-03-12T05:59:27.245Z,97878.81
2023-03-12T06:01:58.829Z,97890.91
2023-03-12T06:04:27.560Z,97893.34
2023-03-12T06:06:54.965Z,97899.97
2023-03-12T06:09:23.610Z,97908.22
2023-03-12T06:11:51.144Z,97913.44
2023-03-12T06:14:19.088Z,97921.34
2023-03-12T06:16:46.913Z,97933.31
2023-03-12T06:19:19.843Z,97939.38
2023-03-12T06:21:49.568Z,97949.59
2023-03-12T06:24:16.565Z,97937.50
2023-03-12T06:26:47.934Z,97957.44
2023-03-12T06:29:21.559Z,97966.94
2023-03-12T06:31:48.700Z,97962.56
2023-03-12T06:34:17.110Z,97969.53
2023-03-12T06:37:03.838Z,97986.53
2023-03-12T06:39:35.692Z,97981.63
2023-03-12T06:42:09.835Z,98003.94
2023-03-12T06:44:41.029Z,97998.69
2023-03-12T06:47:16.454Z,98002.34
2023-03-12T06:49:44.687Z,98009.38
2023-03-12T06:52:11.772Z,98019.81
2023-03-12T06:54:38.749Z,98029.41
2023-03-12T06:57:05.917Z,98029.63
2023-03-12T06:59:32.856Z,98033.19
2023-03-12T07:02:01.116Z,98043.28
2023-03-12T07:04:28.546Z,98047.50
2023-03-12T07:06:59.613Z,98058.97
2023-03-12T07:09:27.611Z,98066.63
2023-03-12T07:12:05.032Z,98064.91
2023-03-12T07:14:32.025Z,98070.03
2023-03-12T07:17:02.028Z,98075.16
2023-03-12T07:19:32.986Z,98088.78
2023-03-12T07:22:00.005Z,98088.00
2023-03-12T07:24:26.974Z,98093.84
2023-03-12T07:26:53.996Z,98100.78
2023-03-12T07:29:23.899Z,98092.75
2023-03-12T07:31:51.540Z,98102.84
2023-03-12T07:34:18.694Z,98110.00
2023-03-12T07:36:46.924Z,98115.69
2023-03-12T07:39:14.818Z,98120.91
2023-03-12T07:41:48.287Z,98111.47
2023-03-12T07:44:18.700Z,98118.53
2023-03-12T07:46:49.291Z,98129.66
2023-03-12T07:49:16.396Z,98145.81
2023-03-12T07:51:43.225Z,98150.13
2023-03-12T07:54:10.284Z,98149.94
2023-03-12T07:56:37.578Z,98124.88
2023-03-12T07:59:05.834Z,98139.72
2023-03-12T08:01:32.850Z,98154.53
2023-03-12T08:04:02.592Z,98157.44
2023-03-12T08:06:30.219Z,98165.19
2023-03-12T08:09:01.695Z,98176.44
2023-03-12T08:11:34.220Z,98181.81
2023-03-12T08:14:08.571Z,98182.94
2023-03-12T08:16:39.569Z,98195.25
2023-03-12T08:19:16.185Z,98191.34
2023-03-12T08:21:54.825Z,98215.53
2023-03-12T08:24:24.426Z,98212.34
2023-03-12T08:26:51.890Z,98224.94
2023-03-12T08:29:18.784Z,98224.81
2023-03-12T08:32:03.294Z,98232.44
2023-03-12T08:34:39.301Z,98236.88
2023-03-12T08:37:08.040Z,98241.13
2023-03-12T08:39:38.607Z,98249.00
2023-03-12T08:42:22.665Z,98253.78
2023-03-12T08:44:50.985Z,98266.78
2023-03-12T08:47:35.838Z,98260.78
2023-03-12T08:50:02.779Z,98271.66
2023-03-12T08:52:33.463Z,98282.00
2023-03-12T08:55:06.954Z,98282.78
2023-03-12T08:57:34.724Z,98272.59
2023-03-12T09:00:03.259Z,98284.56
2023-03-12T09:02:34.280Z,98281.53
2023-03-12T09:05:05.531Z,98290.53
2023-03-12T09:07:33.040Z,98304.16
2023-03-12T09:10:10.043Z,98308.09
2023-03-12T09:13:03.542Z,98306.09
2023-03-12T09:15:30.795Z,98315.34
2023-03-12T09:17:58.070Z,98309.41
2023-03-12T09:20:26.248Z,98320.81
2023-03-12T09:22:53.409Z,98324.59
2023-03-12T09:25:21.426Z,98327.22
2023-03-12T09:27:49.448Z,98331.44
2023-03-12T09:30:18.994Z,98342.19
2023-03-12T09:32:49.918Z,98345.72
2023-03-12T09:35:17.754Z,98347.63
2023-03-12T09:37:48.801Z,98346.03
2023-03-12T09:40:22.438Z,98353.28
2023-03-12T09:43:12.621Z,98360.69
2023-03-12T09:45:51.169Z,98371.00
2023-03-12T09:48:47.561Z,98374.97
2023-03-12T09:51:33.738Z,98373.19
2023-03-12T09:54:35.794Z,98384.53
2023-03-12T09:57:11.690Z,98397.84
2023-03-12T09:59:45.462Z,98407.72
2023-03-12T10:09:34.934Z,98421.25
2023-03-12T10:12:27.616Z,98418.50
2023-03-12T10:15:01.845Z,98416.94
2023-03-12T10:17:54.244Z,98429.44
2023-03-12T10:20:36.857Z,98431.59
2023-03-12T10:23:51.108Z,98444.00
2023-03-12T10:26:35.180Z,98447.19
2023-03-12T10:29:44.798Z,98434.16
2023-03-12T10:32:20.227Z,98436.13
2023-03-12T10:34:53.012Z,98439.25
2023-03-12T10:37:30.666Z,98442.44
2023-03-12T10:40:18.417Z,98443.72
2023-03-12T10:42:46.428Z,98442.44
2023-03-12T10:45:32.592Z,98429.72
2023-03-12T10:48:09.361Z,98437.13
2023-03-12T10:50:40.145Z,98433.97
2023-03-12T10:53:35.282Z,98425.38
2023-03-12T10:56:12.435Z,98446.13
2023-03-12T10:58:51.061Z,98432.34
2023-03-12T11:01:30.016Z,98425.28
2023-03-12T11:04:15.823Z,98428.78
2023-03-12T11:07:39.459Z,98435.13
2023-03-12T11:10:14.284Z,98433.56
2023-03-12T11:12:57.952Z,98437.34
2023-03-12T11:15:53.910Z,98421.88
2023-03-12T11:18:39.199Z,98436.09
2023-03-12T11:21:09.718Z,98437.13
2023-03-12T11:23:44.681Z,98452.63
2023-03-12T11:26:52.174Z,98438.31
2023-03-12T11:32:09.990Z,98458.63
2023-03-12T11:34:41.439Z,98460.22
2023-03-12T11:37:40.290Z,98459.41
2023-03-12T11:41:08.924Z,98466.09
2023-03-12T11:43:48.186Z,98463.06
2023-03-12T11:46:36.880Z,98481.06
2023-03-12T12:19:54.385Z,98523.53
2023-03-12T12:22:46.337Z,98537.41
2023-03-12T12:25:26.595Z,98525.75
2023-03-12T12:28:56.972Z,98521.19
2023-03-12T12:31:43.695Z,98544.56
2023-03-12T12:38:27.169Z,98547.53
2023-03-12T12:41:41.678Z,98554.59
2023-03-12T12:44:34.621Z,98563.88
2023-03-12T12:48:53.831Z,98569.41
2023-03-12T12:54:59.936Z,98581.41
2023-03-12T12:57:51.882Z,98593.78
2023-03-12T13:01:13.706Z,98607.03
2023-03-12T13:04:02.715Z,98596.28
2023-03-12T13:06:58.537Z,98607.81
2023-03-12T13:09:46.648Z,98611.78
2023-03-12T13:12:36.293Z,98601.25
2023-03-12T13:15:32.859Z,98607.50
2023-03-12T13:20:02.820Z,98599.66
2023-03-12T13:27:21.977Z,98609.47
2023-03-12T13:45:56.519Z,98598.63
2023-03-12T13:49:10.553Z,98604.56
2023-03-12T13:52:04.317Z,98613.47
2023-03-12T13:54:34.433Z,98606.94
2023-03-12T13:57:10.610Z,98609.13
2023-03-12T13:59:45.985Z,98610.31
2023-03-12T14:02:28.956Z,98618.03
2023-03-12T14:05:05.045Z,98629.13
2023-03-12T14:08:04.554Z,98622.16
2023-03-12T14:10:44.055Z,98633.41
2023-03-12T14:13:25.283Z,98626.97
2023-03-12T14:16:04.076Z,98639.63
2023-03-12T14:18:36.132Z,98621.69
2023-03-12T14:21:18.496Z,98626.44
2023-03-12T14:23:58.872Z,98637.72
2023-03-12T14:26:37.394Z,98674.91
2023-03-12T14:29:17.951Z,98668.84
2023-03-12T14:31:49.678Z,98668.56
2023-03-12T14:34:21.377Z,98664.13
2023-03-12T14:37:10.876Z,98668.91
2023-03-12T14:39:52.986Z,98645.38
2023-03-12T14:42:35.114Z,98642.84
2023-03-12T14:45:04.881Z,98662.00
2023-03-12T14:47:58.861Z,98664.47
2023-03-12T14:50:41.392Z,98661.50
2023-03-12T14:53:14.871Z,98673.94
2023-03-12T14:56:11.193Z,98674.69
2023-03-12T14:58:47.659Z,98672.84
2023-03-12T15:01:32.669Z,98673.69
2023-03-12T15:04:17.804Z,98677.00
2023-03-12T15:07:11.420Z,98673.84
2023-03-12T15:09:43.877Z,98687.50
2023-03-12T15:13:08.978Z,98700.59
2023-03-12T15:21:57.685Z,98712.38
2023-03-12T15:24:29.421Z,98721.38
2023-03-12T15:27:17.345Z,98729.63
2023-03-12T15:29:45.595Z,98718.56
2023-03-12T15:32:25.332Z,98722.78
2023-03-12T15:34:56.159Z,98732.44
2023-03-12T15:37:33.120Z,98737.91
2023-03-12T15:40:08.585Z,98736.28
2023-03-12T15:42:41.770Z,98741.78
2023-03-12T15:45:33.757Z,98734.09
2023-03-12T15:48:00.978Z,98746.38
2023-03-12T15:50:34.627Z,98754.94
2023-03-12T15:53:52.363Z,98753.22
2023-03-12T15:56:23.840Z,98765.28
2023-03-12T15:59:03.998Z,98770.38
2023-03-12T16:01:47.926Z,98778.75
2023-03-12T16:04:16.155Z,98788.19
2023-03-12T16:06:49.623Z,98860.66
2023-03-12T16:09:24.744Z,98861.69
2023-03-12T16:11:53.503Z,98843.03
2023-03-12T16:14:25.543Z,98847.50
2023-03-12T16:16:53.425Z,98852.84
2023-03-12T16:19:23.738Z,98858.22
2023-03-12T16:22:03.022Z,98859.44
2023-03-12T16:24:30.813Z,98868.16
2023-03-12T16:27:00.370Z,98881.28
2023-03-12T16:29:33.561Z,98879.69
2023-03-12T16:32:02.311Z,98892.91
2023-03-12T16:34:29.509Z,98884.28
2023-03-12T16:36:56.840Z,98899.06
2023-03-12T16:39:24.417Z,98908.69
2023-03-12T16:41:51.928Z,98909.69
2023-03-12T16:44:29.161Z,98926.09
2023-03-12T16:46:59.390Z,98917.44
2023-03-12T16:49:27.003Z,98930.44
2023-03-12T16:51:54.385Z,98937.41
2023-03-12T16:54:23.625Z,98946.94
2023-03-12T16:56:51.058Z,98953.06
2023-03-12T16:59:28.223Z,98946.13
2023-03-12T17:01:56.545Z,98958.25
2023-03-12T17:04:23.570Z,98959.03
2023-03-12T17:06:50.601Z,98961.63
2023-03-12T17:09:19.134Z,98969.38
2023-03-12T17:11:57.725Z,98969.41
2023-03-12T17:14:30.106Z,98981.53
2023-03-12T17:16:57.531Z,98989.38
2023-03-12T17:19:26.914Z,98991.09
2023-03-12T17:21:54.045Z,98991.13
2023-03-12T17:24:24.032Z,98997.25
2023-03-12T17:26:53.585Z,98999.88
2023-03-12T17:29:20.595Z,99010.25
2023-03-12T17:31:47.708Z,99018.06
2023-03-12T17:34:14.625Z,99024.09
2023-03-12T17:36:42.248Z,99020.63
2023-03-12T17:39:09.732Z,99030.22
2023-03-12T17:41:36.584Z,99032.78
2023-03-12T17:44:04.071Z,99044.03
2023-03-12T17:46:31.870Z,99041.47
2023-03-12T17:48:59.333Z,99049.22
2023-03-12T17:51:26.503Z,99054.47
2023-03-12T17:53:53.823Z,99051.84
2023-03-12T17:56:23.383Z,99054.47
2023-03-12T17:58:50.466Z,99063.09
2023-03-12T18:01:18.023Z,99060.50
2023-03-12T18:03:45.826Z,99066.56
2023-03-12T18:06:14.037Z,99057.00
2023-03-12T18:08:41.360Z,99060.50
2023-03-12T18:11:08.423Z,99067.44
2023-03-12T18:13:35.542Z,99072.56
2023-03-12T18:16:02.568Z,99069.97
2023-03-12T18:18:29.722Z,99070.84
2023-03-12T18:20:56.531Z,99085.53
2023-03-12T18:23:25.425Z,99084.59
2023-03-12T18:25:52.504Z,99088.94
2023-03-12T18:28:19.638Z,99092.38
2023-03-12T18:30:47.348Z,99094.06
2023-03-12T18:33:14.993Z,99091.50
2023-03-12T18:35:44.256Z,99109.66
2023-03-12T18:38:12.122Z,99102.72
2023-03-12T18:40:42.217Z,99094.91
2023-03-12T18:43:09.309Z,99105.31
2023-03-12T18:45:43.182Z,99113.97
2023-03-12T18:48:11.016Z,99120.03
2023-03-12T18:50:38.197Z,99117.41
2023-03-12T18:53:05.458Z,99120.84
2023-03-12T18:55:32.378Z,99126.91
2023-03-12T18:57:59.578Z,99129.53
2023-03-12T19:00:26.633Z,99138.16
2023-03-12T19:02:53.649Z,99133.84
2023-03-12T19:05:20.630Z,99139.88
2023-03-12T19:07:47.990Z,99149.44
2023-03-12T19:10:16.213Z,99155.44
2023-03-12T19:12:52.863Z,99167.47
2023-03-12T19:15:27.022Z,99169.22
2023-03-12T19:17:54.522Z,99184.78
2023-03-12T19:20:21.954Z,99192.59
2023-03-12T19:22:54.935Z,99190.84
2023-03-12T19:25:23.727Z,99199.56
2023-03-12T19:27:50.729Z,99208.22
2023-03-12T19:30:18.220Z,99196.03
2023-03-12T19:32:46.518Z,99206.31
2023-03-12T19:35:15.759Z,99212.34
2023-03-12T19:37:42.975Z,99219.19
2023-03-12T19:40:11.332Z,99227.81
2023-03-12T19:42:38.873Z,99225.22
2023-03-12T19:45:08.257Z,99233.88
2023-03-12T19:47:35.959Z,99235.56
2023-03-12T19:50:03.337Z,99237.31
2023-03-12T19:52:30.630Z,99246.84
2023-03-12T19:55:04.721Z,99250.25
2023-03-12T19:57:33.436Z,99245.00
2023-03-12T20:00:00.529Z,99259.66
2023-03-12T20:02:28.001Z,99260.41
2023-03-12T20:04:55.973Z,99268.97
2023-03-12T20:07:23.067Z,99264.50
2023-03-12T20:09:50.533Z,99276.63
2023-03-12T20:12:19.497Z,99281.84
2023-03-12T20:14:47.241Z,99295.69
2023-03-12T20:17:14.986Z,99314.78
2023-03-12T20:19:45.742Z,99339.13
2023-03-12T20:22:13.653Z,99347.03
2023-03-12T20:24:47.258Z,99345.41
2023-03-12T20:27:15.033Z,99357.53
2023-03-12T20:29:46.985Z,99355.03
2023-03-12T20:32:14.780Z,99352.47
2023-03-12T20:34:41.804Z,99353.44
2023-03-12T20:37:08.900Z,99352.69
2023-03-12T20:39:37.371Z,99350.94
2023-03-12T20:42:04.672Z,99363.03
2023-03-12T20:44:31.722Z,99359.66
2023-03-12T20:46:59.366Z,99363.13
2023-03-12T20:49:26.331Z,99356.25
2023-03-12T20:51:53.250Z,99373.56
2023-03-12T20:54:20.236Z,99378.81
2023-03-12T20:56:47.799Z,99359.75
2023-03-12T20:59:14.715Z,99373.63
2023-03-12T21:01:41.921Z,99372.75
2023-03-12T21:04:08.896Z,99372.75
2023-03-12T21:06:36.889Z,99365.81
2023-03-12T21:09:04.764Z,99363.22
2023-03-12T21:11:32.405Z,99377.06
2023-03-12T21:13:59.493Z,99386.56
2023-03-12T21:16:26.811Z,99384.00
2023-03-12T21:18:57.505Z,99381.38
2023-03-12T21:21:24.913Z,99386.63
2023-03-12T21:23:52.290Z,99395.25
2023-03-12T21:26:19.623Z,99401.28
2023-03-12T21:28:47.119Z,99404.72
2023-03-12T21:31:17.018Z,99408.19
2023-03-12T21:33:44.369Z,99410.84
2023-03-12T21:36:14.639Z,99409.06
2023-03-12T21:38:45.678Z,99400.44
2023-03-12T21:41:15.804Z,99416.88
2023-03-12T21:43:44.596Z,99415.22
2023-03-12T21:46:17.592Z,99429.06
2023-03-12T21:48:46.527Z,99429.97
2023-03-12T21:51:15.780Z,99434.31
2023-03-12T21:53:43.234Z,99436.91
2023-03-12T21:56:11.104Z,99436.06
2023-03-12T21:58:38.561Z,99435.19
2023-03-12T22:01:11.922Z,99447.28
2023-03-12T22:03:40.137Z,99444.66
2023-03-12T22:06:07.530Z,99453.31
2023-03-12T22:08:39.065Z,99462.81
2023-03-12T22:11:08.218Z,99474.00
2023-03-12T22:13:35.519Z,99484.38
2023-03-12T22:16:07.822Z,99494.72
2023-03-12T22:18:39.524Z,99485.19
2023-03-12T22:21:07.782Z,99498.13
2023-03-12T22:23:36.449Z,99499.88
2023-03-12T22:26:07.320Z,99505.03
2023-03-12T22:28:35.088Z,99509.34
2023-03-12T22:31:07.376Z,99508.47
2023-03-12T22:33:35.933Z,99526.63
2023-03-12T22:36:08.104Z,99528.38
2023-03-12T22:38:39.958Z,99535.31
2023-03-12T22:41:18.777Z,99537.88
2023-03-12T22:43:47.371Z,99546.56
2023-03-12T22:46:20.892Z,99547.44
2023-03-12T22:48:52.365Z,99555.25
2023-03-12T22:51:19.493Z,99557.00
2023-03-12T22:53:46.350Z,99566.44
2023-03-12T22:56:15.219Z,99566.44
2023-03-12T22:58:43.490Z,99575.91
2023-03-12T23:01:13.192Z,99576.78
2023-03-12T23:03:41.993Z,99568.94
2023-03-12T23:06:20.715Z,99584.47
2023-03-12T23:08:48.327Z,99588.00
2023-03-12T23:11:16.628Z,99589.78
2023-03-12T23:13:45.235Z,99598.47
2023-03-12T23:16:15.994Z,99598.47
2023-03-12T23:18:43.068Z,99597.63
2023-03-12T23:21:13.473Z,99608.06
2023-03-12T23:23:42.248Z,99609.78
2023-03-12T23:26:13.291Z,99613.22
2023-03-12T23:28:40.415Z,99618.34
2023-03-12T23:31:08.753Z,99615.78
2023-03-12T23:33:36.858Z,99614.91
2023-03-12T23:36:13.088Z,99616.56
2023-03-12T23:38:40.026Z,99621.69
2023-03-12T23:41:21.483Z,99623.34
2023-03-12T23:43:49.076Z,99620.81
2023-03-12T23:46:17.255Z,99620.75
2023-03-12T23:48:45.832Z,99624.19
2023-03-12T23:51:15.685Z,99629.34
2023-03-12T23:54:09.136Z,99623.22
2023-03-12T23:56:39.310Z,99628.38
2023-03-12T23:59:12.143Z,99635.25
